sensor_id;sensor_type;location;lat;lon;timestamp;pressure;altitude;pressure_sealevel;temperature;humidity
70445;BME280;57902;49.638;11.070;2022-11-13T00:02:09;99515.59;;;1.74;100.00
70445;BME280;57902;49.638;11.070;2022-11-13T00:04:36;99517.34;;;1.77;100.00
70445;BME280;57902;49.638;11.070;2022-11-13T00:07:02;99522.25;;;1.69;100.00
70445;BME280;57902;49.638;11.070;2022-11-13T00:09:29;99512.78;;;1.64;100.00
70445;BME280;57902;49.638;11.070;2022-11-13T00:11:55;99515.31;;;1.64;100.00
70445;BME280;57902;49.638;11.070;2022-11-13T00:14:21;99511.88;;;1.62;100.00
70445;BME280;57902;49.638;11.070;2022-11-13T00:16:48;99509.34;;;1.62;100.00
70445;BME280;57902;49.638;11.070;2022-11-13T00:19:14;99502.53;;;1.61;100.00
70445;BME280;57902;49.638;11.070;2022-11-13T00:21:41;99498.25;;;1.60;100.00
70445;BME280;57902;49.638;11.070;2022-11-13T00:24:07;99499.19;;;1.62;100.00
70445;BME280;57902;49.638;11.070;2022-11-13T00:26:34;99492.38;;;1.61;100.00
70445;BME280;57902;49.638;11.070;2022-11-13T00:29:02;99495.91;;;1.67;100.00
70445;BME280;57902;49.638;11.070;2022-11-13T00:31:29;99505.16;;;1.64;100.00
70445;BME280;57902;49.638;11.070;2022-11-13T00:33:57;99500.81;;;1.60;100.00
70445;BME280;57902;49.638;11.070;2022-11-13T00:36:44;99504.09;;;1.55;100.00
70445;BME280;57902;49.638;11.070;2022-11-13T00:39:11;99504.97;;;1.56;100.00
70445;BME280;57902;49.638;11.070;2022-11-13T00:41:37;99505.81;;;1.56;100.00
70445;BME280;57902;49.638;11.070;2022-11-13T00:44:04;99515.91;;;1.53;100.00
70445;BME280;57902;49.638;11.070;2022-11-13T00:46:31;99497.91;;;1.46;100.00
70445;BME280;57902;49.638;11.070;2022-11-13T00:48:57;99497.00;;;1.44;100.00
70445;BME280;57902;49.638;11.070;2022-11-13T00:51:24;99494.22;;;1.34;100.00
70445;BME280;57902;49.638;11.070;2022-11-13T00:53:50;99491.56;;;1.30;100.00
70445;BME280;57902;49.638;11.070;2022-11-13T00:56:16;99489.81;;;1.29;100.00
70445;BME280;57902;49.638;11.070;2022-11-13T00:58:43;99486.34;;;1.25;100.00
70445;BME280;57902;49.638;11.070;2022-11-13T01:01:12;99488.91;;;1.25;100.00
70445;BME280;57902;49.638;11.070;2022-11-13T01:03:39;99489.91;;;1.32;100.00
70445;BME280;57902;49.638;11.070;2022-11-13T01:06:10;99486.28;;;1.22;100.00
70445;BME280;57902;49.638;11.070;2022-11-13T01:08:37;99489.50;;;1.16;100.00
70445;BME280;57902;49.638;11.070;2022-11-13T01:11:12;99484.31;;;1.12;100.00
70445;BME280;57902;49.638;11.070;2022-11-13T01:13:40;99475.81;;;1.11;100.00
70445;BME280;57902;49.638;11.070;2022-11-13T01:16:09;99477.44;;;1.09;100.00
70445;BME280;57902;49.638;11.070;2022-11-13T01:18:36;99466.28;;;1.04;100.00
70445;BME280;57902;49.638;11.070;2022-11-13T01:21:04;99469.72;;;1.04;100.00
70445;BME280;57902;49.638;11.070;2022-11-13T01:23:31;99468.03;;;1.05;100.00
70445;BME280;57902;49.638;11.070;2022-11-13T01:26:19;99465.38;;;1.00;100.00
70445;BME280;57902;49.638;11.070;2022-11-13T01:28:46;99462.78;;;0.99;100.00
70445;BME280;57902;49.638;11.070;2022-11-13T01:31:18;99464.50;;;1.00;100.00
70445;BME280;57902;49.638;11.070;2022-11-13T01:33:46;99461.97;;;1.00;100.00
70445;BME280;57902;49.638;11.070;2022-11-13T01:36:15;99451.94;;;1.04;100.00
70445;BME280;57902;49.638;11.070;2022-11-13T01:38:42;99451.03;;;1.02;100.00
70445;BME280;57902;49.638;11.070;2022-11-13T01:41:16;99442.56;;;1.02;100.00
70445;BME280;57902;49.638;11.070;2022-11-13T01:43:48;99439.94;;;0.99;100.00
70445;BME280;57902;49.638;11.070;2022-11-13T01:46:39;99433.13;;;0.98;100.00
70445;BME280;57902;49.638;11.070;2022-11-13T01:51:42;99428.66;;;0.89;100.00
70445;BME280;57902;49.638;11.070;2022-11-13T01:54:17;99427.72;;;0.85;100.00
70445;BME280;57902;49.638;11.070;2022-11-13T01:56:46;99412.41;;;0.82;100.00
70445;BME280;57902;49.638;11.070;2022-11-13T01:59:19;99414.94;;;0.82;100.00
70445;BME280;57902;49.638;11.070;2022-11-13T02:01:47;99409.75;;;0.79;100.00
70445;BME280;57902;49.638;11.070;2022-11-13T02:04:14;99403.78;;;0.77;100.00
70445;BME280;57902;49.638;11.070;2022-11-13T02:06:55;99411.47;;;0.80;100.00
70445;BME280;57902;49.638;11.070;2022-11-13T02:09:26;99402.06;;;0.76;100.00
70445;BME280;57902;49.638;11.070;2022-11-13T02:11:53;99396.94;;;0.75;100.00
70445;BME280;57902;49.638;11.070;2022-11-13T02:14:22;99398.50;;;0.69;100.00
70445;BME280;57902;49.638;11.070;2022-11-13T02:16:53;99389.03;;;0.64;100.00
70445;BME280;57902;49.638;11.070;2022-11-13T02:19:33;99385.66;;;0.63;100.00
70445;BME280;57902;49.638;11.070;2022-11-13T02:22:10;99387.31;;;0.63;100.00
70445;BME280;57902;49.638;11.070;2022-11-13T02:24:43;99386.41;;;0.61;100.00
70445;BME280;57902;49.638;11.070;2022-11-13T02:29:57;99376.09;;;0.55;100.00
70445;BME280;57902;49.638;11.070;2022-11-13T02:32:23;99381.84;;;0.49;100.00
70445;BME280;57902;49.638;11.070;2022-11-13T02:34:50;99376.81;;;0.50;100.00
70445;BME280;57902;49.638;11.070;2022-11-13T02:37:16;99371.03;;;0.55;100.00
70445;BME280;57902;49.638;11.070;2022-11-13T02:39:43;99369.34;;;0.55;100.00
70445;BME280;57902;49.638;11.070;2022-11-13T02:42:09;99365.88;;;0.51;100.00
70445;BME280;57902;49.638;11.070;2022-11-13T02:44:35;99361.47;;;0.46;100.00
70445;BME280;57902;49.638;11.070;2022-11-13T02:47:02;99366.47;;;0.43;100.00
70445;BME280;57902;49.638;11.070;2022-11-13T02:49:28;99362.94;;;0.38;100.00
70445;BME280;57902;49.638;11.070;2022-11-13T02:51:55;99360.34;;;0.36;100.00
70445;BME280;57902;49.638;11.070;2022-11-13T02:54:21;99361.13;;;0.33;100.00
70445;BME280;57902;49.638;11.070;2022-11-13T02:56:48;99357.72;;;0.33;100.00
70445;BME280;57902;49.638;11.070;2022-11-13T02:59:14;99350.84;;;0.29;100.00
70445;BME280;57902;49.638;11.070;2022-11-13T03:01:40;99352.56;;;0.30;100.00
70445;BME280;57902;49.638;11.070;2022-11-13T03:04:07;99346.69;;;0.31;100.00
70445;BME280;57902;49.638;11.070;2022-11-13T03:06:33;99353.63;;;0.38;100.00
70445;BME280;57902;49.638;11.070;2022-11-13T03:09:00;99344.97;;;0.30;100.00
70445;BME280;57902;49.638;11.070;2022-11-13T03:11:26;99341.50;;;0.28;100.00
70445;BME280;57902;49.638;11.070;2022-11-13T03:13:53;99343.19;;;0.27;100.00
70445;BME280;57902;49.638;11.070;2022-11-13T03:16:19;99348.97;;;0.23;100.00
70445;BME280;57902;49.638;11.070;2022-11-13T03:18:45;99338.72;;;0.19;100.00
70445;BME280;57902;49.638;11.070;2022-11-13T03:21:13;99333.69;;;0.20;100.00
70445;BME280;57902;49.638;11.070;2022-11-13T03:23:41;99334.28;;;0.11;100.00
70445;BME280;57902;49.638;11.070;2022-11-13T03:26:14;99330.84;;;0.09;100.00
70445;BME280;57902;49.638;11.070;2022-11-13T03:28:40;99325.69;;;0.06;100.00
70445;BME280;57902;49.638;11.070;2022-11-13T03:31:07;99325.59;;;0.03;100.00
70445;BME280;57902;49.638;11.070;2022-11-13T03:33:33;99330.47;;;-0.03;100.00
70445;BME280;57902;49.638;11.070;2022-11-13T03:36:00;99334.78;;;-0.01;100.00
70445;BME280;57902;49.638;11.070;2022-11-13T03:38:27;99327.97;;;-0.02;100.00
70445;BME280;57902;49.638;11.070;2022-11-13T03:40:54;99324.63;;;-0.01;100.00
70445;BME280;57902;49.638;11.070;2022-11-13T03:43:20;99318.72;;;-0.01;100.00
70445;BME280;57902;49.638;11.070;2022-11-13T03:45:47;99316.09;;;-0.04;100.00
70445;BME280;57902;49.638;11.070;2022-11-13T03:48:14;99308.50;;;-0.04;100.00
70445;BME280;57902;49.638;11.070;2022-11-13T03:50:43;99311.88;;;-0.04;100.00
70445;BME280;57902;49.638;11.070;2022-11-13T03:53:11;99316.09;;;-0.04;100.00
70445;BME280;57902;49.638;11.070;2022-11-13T03:55:38;99308.50;;;-0.04;100.00
70445;BME280;57902;49.638;11.070;2022-11-13T03:58:05;99310.19;;;-0.03;100.00
70445;BME280;57902;49.638;11.070;2022-11-13T04:00:31;99310.19;;;-0.03;100.00
70445;BME280;57902;49.638;11.070;2022-11-13T04:02:58;99315.25;;;-0.03;100.00
70445;BME280;57902;49.638;11.070;2022-11-13T04:05:24;99307.66;;;-0.03;100.00
70445;BME280;57902;49.638;11.070;2022-11-13T04:07:51;99302.50;;;-0.06;100.00
70445;BME280;57902;49.638;11.070;2022-11-13T04:10:18;99299.91;;;-0.08;100.00
70445;BME280;57902;49.638;11.070;2022-11-13T04:12:44;99297.44;;;-0.06;100.00
70445;BME280;57902;49.638;11.070;2022-11-13T04:15:10;99301.78;;;-0.02;100.00
70445;BME280;57902;49.638;11.070;2022-11-13T04:17:37;99299.06;;;-0.08;100.00
70445;BME280;57902;49.638;11.070;2022-11-13T04:20:04;99297.34;;;-0.09;100.00
70445;BME280;57902;49.638;11.070;2022-11-13T04:22:30;99293.91;;;-0.11;100.00
70445;BME280;57902;49.638;11.070;2022-11-13T04:24:57;99291.38;;;-0.11;100.00
70445;BME280;57902;49.638;11.070;2022-11-13T04:27:23;99293.88;;;-0.13;100.00
70445;BME280;57902;49.638;11.070;2022-11-13T04:29:50;99290.47;;;-0.13;100.00
70445;BME280;57902;49.638;11.070;2022-11-13T04:32:16;99289.56;;;-0.15;100.00
70445;BME280;57902;49.638;11.070;2022-11-13T04:34:42;99282.84;;;-0.13;100.00
70445;BME280;57902;49.638;11.070;2022-11-13T04:37:09;99283.78;;;-0.11;100.00
70445;BME280;57902;49.638;11.070;2022-11-13T04:39:36;99276.09;;;-0.14;100.00
70445;BME280;57902;49.638;11.070;2022-11-13T04:42:02;99270.94;;;-0.17;100.00
70445;BME280;57902;49.638;11.070;2022-11-13T04:44:47;99268.16;;;-0.25;100.00
70445;BME280;57902;49.638;11.070;2022-11-13T04:47:14;99268.94;;;-0.28;100.00
70445;BME280;57902;49.638;11.070;2022-11-13T04:49:40;99273.88;;;-0.31;100.00
70445;BME280;57902;49.638;11.070;2022-11-13T04:52:06;99274.72;;;-0.32;100.00
70445;BME280;57902;49.638;11.070;2022-11-13T04:54:33;99271.13;;;-0.39;100.00
70445;BME280;57902;49.638;11.070;2022-11-13T04:56:59;99275.34;;;-0.39;100.00
70445;BME280;57902;49.638;11.070;2022-11-13T04:59:26;99277.78;;;-0.42;100.00
70445;BME280;57902;49.638;11.070;2022-11-13T05:01:52;99278.59;;;-0.43;100.00
70445;BME280;57902;49.638;11.070;2022-11-13T05:04:21;99280.34;;;-0.42;100.00
70445;BME280;57902;49.638;11.070;2022-11-13T05:06:48;99276.16;;;-0.40;100.00
70445;BME280;57902;49.638;11.070;2022-11-13T05:09:14;99281.19;;;-0.42;100.00
70445;BME280;57902;49.638;11.070;2022-11-13T05:11:41;99282.94;;;-0.39;100.00
70445;BME280;57902;49.638;11.070;2022-11-13T05:14:10;99277.78;;;-0.42;100.00
70445;BME280;57902;49.638;11.070;2022-11-13T05:16:36;99266.75;;;-0.44;100.00
70445;BME280;57902;49.638;11.070;2022-11-13T05:19:03;99273.63;;;-0.40;100.00
70445;BME280;57902;49.638;11.070;2022-11-13T05:21:33;99270.16;;;-0.44;100.00
70445;BME280;57902;49.638;11.070;2022-11-13T05:24:00;99253.91;;;-0.50;100.00
70445;BME280;57902;49.638;11.070;2022-11-13T05:26:26;99256.44;;;-0.50;100.00
70445;BME280;57902;49.638;11.070;2022-11-13T05:28:58;99256.44;;;-0.50;100.00
70445;BME280;57902;49.638;11.070;2022-11-13T05:31:25;99264.94;;;-0.48;100.00
70445;BME280;57902;49.638;11.070;2022-11-13T05:33:53;99248.03;;;-0.49;100.00
70445;BME280;57902;49.638;11.070;2022-11-13T05:36:21;99247.88;;;-0.54;100.00
70445;BME280;57902;49.638;11.070;2022-11-13T05:38:48;99251.28;;;-0.54;100.00
70445;BME280;57902;49.638;11.070;2022-11-13T05:41:19;99251.38;;;-0.50;100.00
70445;BME280;57902;49.638;11.070;2022-11-13T05:43:47;99253.09;;;-0.49;100.00
70445;BME280;57902;49.638;11.070;2022-11-13T05:48:43;99247.75;;;-0.59;100.00
70445;BME280;57902;49.638;11.070;2022-11-13T05:51:18;99245.88;;;-0.64;100.00
70445;BME280;57902;49.638;11.070;2022-11-13T05:53:44;99238.25;;;-0.66;100.00
70445;BME280;57902;49.638;11.070;2022-11-13T05:56:17;99227.94;;;-0.71;100.00
70445;BME280;57902;49.638;11.070;2022-11-13T05:58:45;99228.84;;;-0.70;100.00
70445;BME280;57902;49.638;11.070;2022-11-13T06:01:22;99219.66;;;-0.66;100.00
70445;BME280;57902;49.638;11.070;2022-11-13T06:03:49;99213.72;;;-0.67;100.00
70445;BME280;57902;49.638;11.070;2022-11-13T06:06:19;99208.56;;;-0.70;100.00
70445;BME280;57902;49.638;11.070;2022-11-13T06:08:47;99208.63;;;-0.68;100.00
70445;BME280;57902;49.638;11.070;2022-11-13T06:11:16;99202.72;;;-0.69;100.00
70445;BME280;57902;49.638;11.070;2022-11-13T06:13:43;99202.75;;;-0.67;100.00
70445;BME280;57902;49.638;11.070;2022-11-13T06:16:11;99196.81;;;-0.68;100.00
70445;BME280;57902;49.638;11.070;2022-11-13T06:18:39;99198.34;;;-0.73;100.00
70445;BME280;57902;49.638;11.070;2022-11-13T06:21:10;99199.97;;;-0.75;100.00
70445;BME280;57902;49.638;11.070;2022-11-13T06:23:37;99198.34;;;-0.73;100.00
70445;BME280;57902;49.638;11.070;2022-11-13T06:26:10;99194.06;;;-0.76;100.00
70445;BME280;57902;49.638;11.070;2022-11-13T06:28:37;99206.66;;;-0.77;100.00
70445;BME280;57902;49.638;11.070;2022-11-13T06:31:06;99200.75;;;-0.78;100.00
70445;BME280;57902;49.638;11.070;2022-11-13T06:33:32;99201.50;;;-0.80;100.00
70445;BME280;57902;49.638;11.070;2022-11-13T06:36:08;99192.28;;;-0.78;100.00
70445;BME280;57902;49.638;11.070;2022-11-13T06:38:37;99193.25;;;-0.75;100.00
70445;BME280;57902;49.638;11.070;2022-11-13T06:41:05;99193.25;;;-0.75;100.00
70445;BME280;57902;49.638;11.070;2022-11-13T06:43:32;99189.94;;;-0.72;100.00
70445;BME280;57902;49.638;11.070;2022-11-13T06:46:05;99201.66;;;-0.76;100.00
70445;BME280;57902;49.638;11.070;2022-11-13T06:48:33;99198.34;;;-0.73;100.00
70445;BME280;57902;49.638;11.070;2022-11-13T06:51:01;99203.50;;;-0.70;100.00
70445;BME280;57902;49.638;11.070;2022-11-13T06:53:28;99209.50;;;-0.66;100.00
70445;BME280;57902;49.638;11.070;2022-11-13T06:55:55;99208.72;;;-0.65;100.00
70445;BME280;57902;49.638;11.070;2022-11-13T06:58:21;99212.00;;;-0.68;100.00
70445;BME280;57902;49.638;11.070;2022-11-13T07:00:49;99201.16;;;-0.64;100.00
70445;BME280;57902;49.638;11.070;2022-11-13T07:05:43;99190.31;;;-0.60;100.00
70445;BME280;57902;49.638;11.070;2022-11-13T07:08:11;99192.03;;;-0.59;100.00
70445;BME280;57902;49.638;11.070;2022-11-13T07:10:38;99185.50;;;-0.50;100.00
70445;BME280;57902;49.638;11.070;2022-11-13T07:13:05;99200.78;;;-0.47;100.00
70445;BME280;57902;49.638;11.070;2022-11-13T07:15:36;99191.28;;;-0.26;100.00
70445;BME280;57902;49.638;11.070;2022-11-13T07:18:03;99193.88;;;0.06;100.00
70445;BME280;57902;49.638;11.070;2022-11-13T07:20:30;99183.63;;;0.35;100.00
70445;BME280;57902;49.638;11.070;2022-11-13T07:22:58;99175.28;;;0.74;100.00
70445;BME280;57902;49.638;11.070;2022-11-13T07:25:26;99176.06;;;1.08;100.00
70445;BME280;57902;49.638;11.070;2022-11-13T07:27:53;99187.81;;;1.41;100.00
70445;BME280;57902;49.638;11.070;2022-11-13T07:30:20;99177.50;;;1.76;100.00
70445;BME280;57902;49.638;11.070;2022-11-13T07:32:47;99173.69;;;1.97;96.65
70445;BME280;57902;49.638;11.070;2022-11-13T07:35:13;99170.00;;;2.26;98.37
70445;BME280;57902;49.638;11.070;2022-11-13T07:37:45;99163.78;;;2.59;95.71
70445;BME280;57902;49.638;11.070;2022-11-13T07:40:11;99164.97;;;2.82;93.02
70445;BME280;57902;49.638;11.070;2022-11-13T07:42:38;99155.09;;;3.00;94.42
70445;BME280;57902;49.638;11.070;2022-11-13T07:45:05;99167.22;;;3.17;92.49
70445;BME280;57902;49.638;11.070;2022-11-13T07:47:32;99169.16;;;3.35;89.18
70445;BME280;57902;49.638;11.070;2022-11-13T07:49:58;99167.66;;;3.49;88.94
70445;BME280;57902;49.638;11.070;2022-11-13T07:52:34;99156.72;;;3.59;87.81
70445;BME280;57902;49.638;11.070;2022-11-13T07:55:01;99155.97;;;3.66;86.41
70445;BME280;57902;49.638;11.070;2022-11-13T07:57:27;99151.09;;;3.83;86.79
70445;BME280;57902;49.638;11.070;2022-11-13T07:59:54;99153.72;;;3.93;86.48
70445;BME280;57902;49.638;11.070;2022-11-13T08:02:20;99153.81;;;4.00;87.98
70445;BME280;57902;49.638;11.070;2022-11-13T08:04:52;99141.16;;;4.08;84.74
70445;BME280;57902;49.638;11.070;2022-11-13T08:07:18;99137.06;;;4.27;87.04
70445;BME280;57902;49.638;11.070;2022-11-13T08:09:44;99141.56;;;4.51;85.12
70445;BME280;57902;49.638;11.070;2022-11-13T08:12:11;99144.13;;;4.54;83.29
70445;BME280;57902;49.638;11.070;2022-11-13T08:14:37;99141.63;;;4.61;84.26
70445;BME280;57902;49.638;11.070;2022-11-13T08:17:04;99133.81;;;4.44;84.28
70445;BME280;57902;49.638;11.070;2022-11-13T08:19:30;99135.69;;;4.65;81.93
70445;BME280;57902;49.638;11.070;2022-11-13T08:21:57;99129.88;;;4.83;81.30
70445;BME280;57902;49.638;11.070;2022-11-13T08:24:23;99120.53;;;4.83;81.54
70445;BME280;57902;49.638;11.070;2022-11-13T08:26:49;99116.16;;;4.70;82.92
70445;BME280;57902;49.638;11.070;2022-11-13T08:29:16;99119.50;;;4.61;81.99
70445;BME280;57902;49.638;11.070;2022-11-13T08:31:42;99114.13;;;4.29;82.81
70445;BME280;57902;49.638;11.070;2022-11-13T08:34:09;99114.06;;;4.26;83.77
70445;BME280;57902;49.638;11.070;2022-11-13T08:36:35;99093.56;;;4.13;86.08
70445;BME280;57902;49.638;11.070;2022-11-13T08:39:02;99096.78;;;3.94;85.60
70445;BME280;57902;49.638;11.070;2022-11-13T08:41:28;99082.56;;;4.20;84.82
70445;BME280;57902;49.638;11.070;2022-11-13T08:43:55;99084.25;;;4.18;85.51
70445;BME280;57902;49.638;11.070;2022-11-13T08:46:21;99090.34;;;4.36;86.26
70445;BME280;57902;49.638;11.070;2022-11-13T08:48:47;99081.97;;;4.49;85.89
70445;BME280;57902;49.638;11.070;2022-11-13T08:51:14;99083.59;;;4.43;84.49
70445;BME280;57902;49.638;11.070;2022-11-13T08:53:40;99080.19;;;4.41;85.89
70445;BME280;57902;49.638;11.070;2022-11-13T08:56:07;99082.84;;;4.56;85.77
70445;BME280;57902;49.638;11.070;2022-11-13T08:58:33;99081.09;;;4.47;85.73
70445;BME280;57902;49.638;11.070;2022-11-13T09:01:01;99076.72;;;4.32;85.42
70445;BME280;57902;49.638;11.070;2022-11-13T09:03:27;99062.13;;;4.19;89.18
70445;BME280;57902;49.638;11.070;2022-11-13T09:05:54;99059.78;;;4.42;88.48
70445;BME280;57902;49.638;11.070;2022-11-13T09:08:20;99047.03;;;4.44;86.80
70445;BME280;57902;49.638;11.070;2022-11-13T09:10:47;99050.41;;;4.43;86.81
70445;BME280;57902;49.638;11.070;2022-11-13T09:13:13;99043.63;;;4.46;87.19
70445;BME280;57902;49.638;11.070;2022-11-13T09:15:40;99041.13;;;4.51;84.66
70445;BME280;57902;49.638;11.070;2022-11-13T09:18:08;99039.50;;;4.67;85.99
70445;BME280;57902;49.638;11.070;2022-11-13T09:20:35;99029.34;;;4.71;86.70
70445;BME280;57902;49.638;11.070;2022-11-13T09:23:04;99031.97;;;4.85;86.95
70445;BME280;57902;49.638;11.070;2022-11-13T09:25:33;99031.16;;;4.96;86.53
70445;BME280;57902;49.638;11.070;2022-11-13T09:28:04;99017.56;;;5.00;86.45
70445;BME280;57902;49.638;11.070;2022-11-13T09:30:31;99017.56;;;4.98;85.87
70445;BME280;57902;49.638;11.070;2022-11-13T09:32:59;99009.94;;;5.14;87.58
70445;BME280;57902;49.638;11.070;2022-11-13T09:35:26;99005.72;;;5.19;87.00
70445;BME280;57902;49.638;11.070;2022-11-13T09:38:04;98989.56;;;5.32;87.00
70445;BME280;57902;49.638;11.070;2022-11-13T09:51:36;99012.72;;;5.97;86.48
70445;BME280;57902;49.638;11.070;2022-11-13T09:54:11;99004.19;;;6.09;85.70
70445;BME280;57902;49.638;11.070;2022-11-13T09:59:47;98998.22;;;6.24;88.16
70445;BME280;57902;49.638;11.070;2022-11-13T10:02:28;99006.75;;;6.35;89.46
70445;BME280;57902;49.638;11.070;2022-11-13T10:13:27;98997.22;;;7.00;88.41
70445;BME280;57902;49.638;11.070;2022-11-13T10:16:03;98999.72;;;7.14;87.55
70445;BME280;57902;49.638;11.070;2022-11-13T10:18:35;99009.06;;;7.29;88.74
70445;BME280;57902;49.638;11.070;2022-11-13T10:21:19;98997.00;;;7.47;88.39
70445;BME280;57902;49.638;11.070;2022-11-13T10:23:54;98995.19;;;7.64;88.65
70445;BME280;57902;49.638;11.070;2022-11-13T10:26:23;98983.91;;;7.85;88.11
70445;BME280;57902;49.638;11.070;2022-11-13T10:28:59;98977.88;;;7.93;84.16
70445;BME280;57902;49.638;11.070;2022-11-13T10:31:26;98978.75;;;7.93;84.17
70445;BME280;57902;49.638;11.070;2022-11-13T10:33:53;98984.63;;;8.04;86.34
70445;BME280;57902;49.638;11.070;2022-11-13T10:36:31;98981.97;;;8.17;87.55
70445;BME280;57902;49.638;11.070;2022-11-13T10:39:08;98981.00;;;8.30;88.04
70445;BME280;57902;49.638;11.070;2022-11-13T10:41:51;98974.03;;;8.46;87.40
70445;BME280;57902;49.638;11.070;2022-11-13T10:47:03;98979.88;;;8.61;86.30
70445;BME280;57902;49.638;11.070;2022-11-13T10:49:29;98967.78;;;8.69;86.82
70445;BME280;57902;49.638;11.070;2022-11-13T10:51:57;98970.25;;;8.80;86.65
70445;BME280;57902;49.638;11.070;2022-11-13T10:54:26;98965.91;;;8.83;86.44
70445;BME280;57902;49.638;11.070;2022-11-13T10:57:02;98961.59;;;8.84;87.51
70445;BME280;57902;49.638;11.070;2022-11-13T10:59:36;98951.31;;;8.87;88.17
70445;BME280;57902;49.638;11.070;2022-11-13T11:02:21;98940.94;;;8.93;87.04
70445;BME280;57902;49.638;11.070;2022-11-13T11:04:48;98939.16;;;8.98;87.02
70445;BME280;57902;49.638;11.070;2022-11-13T11:07:18;98943.31;;;9.07;87.15
70445;BME280;57902;49.638;11.070;2022-11-13T11:09:48;98935.53;;;9.13;86.35
70445;BME280;57902;49.638;11.070;2022-11-13T11:14:58;98928.72;;;9.10;86.43
70445;BME280;57902;49.638;11.070;2022-11-13T11:17:37;98918.25;;;9.23;85.47
70445;BME280;57902;49.638;11.070;2022-11-13T11:25:56;98900.09;;;9.35;85.61
70445;BME280;57902;49.638;11.070;2022-11-13T11:28:30;98882.06;;;9.37;86.19
70445;BME280;57902;49.638;11.070;2022-11-13T11:31:22;98893.91;;;9.47;84.92
70445;BME280;57902;49.638;11.070;2022-11-13T11:33:59;98899.00;;;9.50;85.59
70445;BME280;57902;49.638;11.070;2022-11-13T11:36:32;98899.75;;;9.55;84.74
70445;BME280;57902;49.638;11.070;2022-11-13T11:39:30;98895.38;;;9.62;84.47
70445;BME280;57902;49.638;11.070;2022-11-13T11:44:41;98866.16;;;9.64;85.28
70445;BME280;57902;49.638;11.070;2022-11-13T11:47:14;98870.31;;;9.72;85.25
70445;BME280;57902;49.638;11.070;2022-11-13T11:49:42;98858.34;;;9.71;85.20
70445;BME280;57902;49.638;11.070;2022-11-13T11:52:34;98858.19;;;9.80;85.41
70445;BME280;57902;49.638;11.070;2022-11-13T12:00:22;98844.00;;;10.06;85.18
70445;BME280;57902;49.638;11.070;2022-11-13T12:02:51;98837.78;;;10.18;84.17
70445;BME280;57902;49.638;11.070;2022-11-13T12:08:47;98812.91;;;10.15;83.22
70445;BME280;57902;49.638;11.070;2022-11-13T12:11:25;98801.47;;;10.28;83.10
70445;BME280;57902;49.638;11.070;2022-11-13T12:22:36;98804.41;;;10.54;83.91
70445;BME280;57902;49.638;11.070;2022-11-13T12:30:20;98776.66;;;10.66;84.97
70445;BME280;57902;49.638;11.070;2022-11-13T12:33:20;98773.78;;;10.79;83.62
70445;BME280;57902;49.638;11.070;2022-11-13T12:35:46;98782.06;;;10.93;83.67
70445;BME280;57902;49.638;11.070;2022-11-13T12:46:36;98767.88;;;11.11;82.99
70445;BME280;57902;49.638;11.070;2022-11-13T12:49:21;98763.34;;;11.21;81.90
70445;BME280;57902;49.638;11.070;2022-11-13T12:51:58;98762.31;;;11.28;81.39
70445;BME280;57902;49.638;11.070;2022-11-13T12:59:40;98753.84;;;11.58;77.58
70445;BME280;57902;49.638;11.070;2022-11-13T13:02:19;98744.63;;;11.80;70.65
70445;BME280;57902;49.638;11.070;2022-11-13T13:05:31;98744.06;;;12.02;69.98
70445;BME280;57902;49.638;11.070;2022-11-13T13:08:23;98732.09;;;12.29;66.85
70445;BME280;57902;49.638;11.070;2022-11-13T13:11:16;98732.44;;;12.47;66.27
70445;BME280;57902;49.638;11.070;2022-11-13T13:14:07;98731.97;;;12.62;65.01
70445;BME280;57902;49.638;11.070;2022-11-13T13:16:36;98725.31;;;12.82;64.03
70445;BME280;57902;49.638;11.070;2022-11-13T13:19:28;98721.47;;;12.95;63.57
70445;BME280;57902;49.638;11.070;2022-11-13T13:21:55;98722.25;;;12.97;64.10
70445;BME280;57902;49.638;11.070;2022-11-13T13:24:32;98728.31;;;12.96;64.40
70445;BME280;57902;49.638;11.070;2022-11-13T13:26:59;98728.22;;;12.99;63.85
70445;BME280;57902;49.638;11.070;2022-11-13T13:29:28;98726.31;;;13.04;63.54
70445;BME280;57902;49.638;11.070;2022-11-13T13:32:21;98727.16;;;13.05;64.18
70445;BME280;57902;49.638;11.070;2022-11-13T13:38:02;98713.03;;;13.15;62.96
70445;BME280;57902;49.638;11.070;2022-11-13T13:46:00;98706.31;;;13.09;63.37
70445;BME280;57902;49.638;11.070;2022-11-13T13:48:31;98705.41;;;13.10;64.01
70445;BME280;57902;49.638;11.070;2022-11-13T13:51:03;98705.72;;;13.01;64.74
70445;BME280;57902;49.638;11.070;2022-11-13T13:53:35;98699.50;;;13.07;64.15
70445;BME280;57902;49.638;11.070;2022-11-13T13:56:03;98708.06;;;13.09;63.84
70445;BME280;57902;49.638;11.070;2022-11-13T13:58:32;98704.31;;;13.18;62.90
70445;BME280;57902;49.638;11.070;2022-11-13T14:01:02;98703.66;;;13.11;63.54
70445;BME280;57902;49.638;11.070;2022-11-13T14:03:45;98703.72;;;13.09;63.39
70445;BME280;57902;49.638;11.070;2022-11-13T14:06:21;98709.19;;;13.27;61.49
70445;BME280;57902;49.638;11.070;2022-11-13T14:08:48;98703.53;;;13.16;62.15
70445;BME280;57902;49.638;11.070;2022-11-13T14:11:23;98706.25;;;13.11;62.97
70445;BME280;57902;49.638;11.070;2022-11-13T14:14:06;98700.94;;;13.16;62.01
70445;BME280;57902;49.638;11.070;2022-11-13T14:16:32;98693.25;;;13.12;63.16
70445;BME280;57902;49.638;11.070;2022-11-13T14:19:05;98690.81;;;13.08;63.87
70445;BME280;57902;49.638;11.070;2022-11-13T14:21:32;98692.78;;;13.01;64.18
70445;BME280;57902;49.638;11.070;2022-11-13T14:23:58;98689.59;;;12.93;64.60
70445;BME280;57902;49.638;11.070;2022-11-13T14:26:28;98687.22;;;12.87;66.63
70445;BME280;57902;49.638;11.070;2022-11-13T14:28:57;98683.38;;;12.72;67.04
70445;BME280;57902;49.638;11.070;2022-11-13T14:31:29;98679.44;;;12.60;67.95
70445;BME280;57902;49.638;11.070;2022-11-13T14:33:59;98670.25;;;12.51;68.24
70445;BME280;57902;49.638;11.070;2022-11-13T14:36:29;98672.25;;;12.41;68.61